»·PEaware :: N215TT KNBG-KNFW

N215TT :: KNBG-KNFW

FLIGHT INFORMATION

Flight Status: Arrived
Operator: Privately registered:
United States
More flights under this callsign
Pilot: Drew L. (13237)
Aircraft: PILATUS PC-12 EAGLE
(PC12)
More flights by this aircraft type
Origin: KNBG New Orleans NAS
United States
Destination: KNFW Fort Worth NAS Jrb
United States
More flights between these airports :: More routes between these airports
Route: AEX HERRI
File this flight plan on PilotEdge
Remarks:
Altitude:
(Current/Filed)
24,000ft
Speed:
(Current/Filed)
0kts
Departed: 02-Jun-18 06:29 PM
Arrived: 02-Jun-18 08:31 PM
Distance/Time
Traveled:
419nm/2:02
Distance/Time
To Go:
Arrived

Flight Plot

Page will automatically refresh every two minutes.

Flight plan parsing failed; only flown route is shown


Map Options




Map Legend


Flown Route
Filed Route
Departure Airport
Arrival Airport
Navaid (VOR, NDB)
Fix

Horizontal Profiles

Position Reports

Time Latitude Longitude Heading Altitude Ground
Speed
02-Jun-18 18:28 29.827022 -90.033386 222 23ft 108kts
02-Jun-18 18:29 29.806463 -90.058482 237 1976ft 119kts
02-Jun-18 18:30 29.799318 -90.090514 314 4096ft 118kts
02-Jun-18 18:31 29.825549 -90.111916 288 6167ft 117kts
02-Jun-18 18:32 29.823172 -90.146208 311 8111ft 121kts
02-Jun-18 18:33 29.844046 -90.175285 310 10652ft 126kts
02-Jun-18 18:34 29.868402 -90.212729 309 12913ft 151kts
02-Jun-18 18:35 29.893296 -90.252173 309 15328ft 156kts
02-Jun-18 18:36 29.918729 -90.292869 309 17614ft 161kts
02-Jun-18 18:37 29.944943 -90.334936 309 19789ft 165kts
02-Jun-18 18:38 29.971861 -90.378195 310 21826ft 169kts
02-Jun-18 18:39 29.999387 -90.422471 310 23639ft 174kts
02-Jun-18 18:40 30.033488 -90.477025 308 23773ft 239kts
02-Jun-18 18:41 30.074396 -90.543060 308 23770ft 264kts
02-Jun-18 18:42 30.115207 -90.609060 308 23772ft 254kts
02-Jun-18 18:43 30.155197 -90.673866 308 23773ft 248kts
02-Jun-18 18:44 30.194917 -90.738332 308 23772ft 246kts
02-Jun-18 18:45 30.234447 -90.802575 308 23760ft 245kts
02-Jun-18 18:46 30.273890 -90.866790 308 23745ft 245kts
02-Jun-18 18:47 30.313280 -90.931021 308 23732ft 245kts
02-Jun-18 18:48 30.352745 -90.995537 308 23727ft 245kts
02-Jun-18 18:49 30.391828 -91.059522 309 23727ft 243kts
02-Jun-18 18:50 30.430635 -91.123118 310 23726ft 241kts
02-Jun-18 18:51 30.469201 -91.186416 310 23726ft 239kts
02-Jun-18 18:52 30.506511 -91.247683 311 23726ft 229kts
02-Jun-18 18:53 30.542849 -91.307466 311 23728ft 225kts
02-Jun-18 18:54 30.578758 -91.366659 311 23731ft 224kts
02-Jun-18 18:55 30.614430 -91.425556 311 23733ft 223kts
02-Jun-18 18:56 30.650025 -91.484410 311 23734ft 223kts
02-Jun-18 18:57 30.685625 -91.543367 311 23733ft 223kts
02-Jun-18 18:58 30.721132 -91.602252 311 23733ft 223kts
02-Jun-18 18:59 30.756472 -91.660957 311 23733ft 223kts
02-Jun-18 19:00 30.791921 -91.719915 311 23735ft 223kts
02-Jun-18 19:01 30.827340 -91.778916 311 23739ft 222kts
02-Jun-18 19:02 30.862691 -91.837894 311 23743ft 222kts
02-Jun-18 19:03 30.898040 -91.896951 311 23747ft 222kts
02-Jun-18 19:04 30.933274 -91.955900 310 23748ft 222kts
02-Jun-18 19:05 30.968424 -92.014805 310 23742ft 221kts
02-Jun-18 19:06 31.003436 -92.073571 310 23732ft 221kts
02-Jun-18 19:07 31.038358 -92.132271 310 23719ft 220kts
02-Jun-18 19:08 31.073151 -92.190856 310 23710ft 219kts
02-Jun-18 19:09 31.107267 -92.248375 310 23713ft 219kts
02-Jun-18 19:10 31.139906 -92.303467 310 23710ft 221kts
02-Jun-18 19:11 31.174861 -92.362564 310 23705ft 221kts
02-Jun-18 19:12 31.209855 -92.421822 310 23701ft 222kts
02-Jun-18 19:13 31.244864 -92.481197 310 23704ft 221kts
02-Jun-18 19:14 31.269856 -92.547991 295 23703ft 229kts
02-Jun-18 19:15 31.289949 -92.618324 294 23701ft 229kts
02-Jun-18 19:16 31.309974 -92.689503 294 23699ft 230kts
02-Jun-18 19:17 31.330002 -92.760557 294 23697ft 231kts
02-Jun-18 19:18 31.350084 -92.831919 294 23698ft 231kts
02-Jun-18 19:19 31.370173 -92.903411 293 23699ft 231kts
02-Jun-18 19:20 31.390043 -92.974222 292 23883ft 222kts
02-Jun-18 19:21 31.409287 -93.043039 291 23930ft 224kts
02-Jun-18 19:22 31.428793 -93.113004 290 23929ft 226kts
02-Jun-18 19:23 31.448195 -93.183019 290 23935ft 226kts
02-Jun-18 19:24 31.467627 -93.253116 290 23942ft 226kts
02-Jun-18 19:25 31.487021 -93.323195 290 23950ft 226kts
02-Jun-18 19:26 31.506385 -93.393332 290 23957ft 226kts
02-Jun-18 19:27 31.525673 -93.463352 290 23963ft 226kts
02-Jun-18 19:28 31.545003 -93.533701 290 23963ft 226kts
02-Jun-18 19:29 31.564234 -93.603854 290 23963ft 226kts
02-Jun-18 19:30 31.583353 -93.673773 290 23989ft 225kts
02-Jun-18 19:31 31.602504 -93.743967 290 23996ft 226kts
02-Jun-18 19:32 31.621641 -93.814284 290 23998ft 226kts
02-Jun-18 19:33 31.640767 -93.884725 290 23992ft 227kts
02-Jun-18 19:34 31.659849 -93.955187 290 23982ft 227kts
02-Jun-18 19:35 31.678890 -94.025663 290 23976ft 227kts
02-Jun-18 19:36 31.697899 -94.096198 290 23972ft 227kts
02-Jun-18 19:37 31.716876 -94.166782 290 23971ft 227kts
02-Jun-18 19:38 31.735789 -94.237305 290 23971ft 226kts
02-Jun-18 19:39 31.754726 -94.308091 290 23971ft 226kts
02-Jun-18 19:40 31.773522 -94.378523 290 23971ft 226kts
02-Jun-18 19:41 31.792308 -94.449095 290 23971ft 226kts
02-Jun-18 19:42 31.811069 -94.519748 290 23971ft 226kts
02-Jun-18 19:43 31.829756 -94.590295 290 23970ft 226kts
02-Jun-18 19:44 31.846587 -94.653989 289 23971ft 226kts
02-Jun-18 19:45 31.858056 -94.697474 289 23972ft 226kts
02-Jun-18 19:46 31.876698 -94.768276 289 23971ft 227kts
02-Jun-18 19:47 31.895335 -94.839138 289 23975ft 227kts
02-Jun-18 19:48 31.913874 -94.909871 288 23986ft 226kts
02-Jun-18 19:49 31.932298 -94.980405 288 23997ft 226kts
02-Jun-18 19:50 31.952856 -95.050058 293 24009ft 225kts
02-Jun-18 19:51 31.976927 -95.118256 292 24009ft 226kts
02-Jun-18 19:52 32.001003 -95.186528 292 24009ft 226kts
02-Jun-18 19:53 32.025064 -95.254882 292 24003ft 226kts
02-Jun-18 19:54 32.049125 -95.323365 292 23992ft 226kts
02-Jun-18 19:55 32.073137 -95.391853 292 23981ft 226kts
02-Jun-18 19:56 32.097076 -95.460280 292 23972ft 226kts
02-Jun-18 19:57 32.120989 -95.528754 292 23969ft 226kts
02-Jun-18 19:58 32.140889 -95.585859 292 23970ft 226kts
02-Jun-18 19:59 32.168512 -95.665301 292 23977ft 226kts
02-Jun-18 20:00 32.192365 -95.734035 292 23979ft 226kts
02-Jun-18 20:01 32.216111 -95.802604 292 23976ft 227kts
02-Jun-18 20:02 32.230227 -95.843435 292 23971ft 227kts
02-Jun-18 20:03 32.248797 -95.897326 293 23994ft 226kts
02-Jun-18 20:04 32.272290 -95.965417 293 23987ft 226kts
02-Jun-18 20:05 32.295960 -96.034252 293 23983ft 226kts
02-Jun-18 20:06 32.319610 -96.103170 293 23983ft 226kts
02-Jun-18 20:07 32.343215 -96.172115 293 23983ft 226kts
02-Jun-18 20:08 32.366359 -96.239410 293 22491ft 222kts
02-Jun-18 20:09 32.388980 -96.305672 292 20310ft 215kts
02-Jun-18 20:10 32.410873 -96.369999 292 18168ft 209kts
02-Jun-18 20:11 32.432219 -96.432845 292 16058ft 204kts
02-Jun-18 20:12 32.452900 -96.493858 292 13998ft 199kts
02-Jun-18 20:13 32.473185 -96.553809 292 12172ft 194kts
02-Jun-18 20:14 32.493061 -96.612400 291 10377ft 191kts
02-Jun-18 20:15 32.512522 -96.670170 289 8600ft 189kts
02-Jun-18 20:16 32.531893 -96.727889 289 6853ft 189kts
02-Jun-18 20:17 32.550527 -96.784088 293 5200ft 188kts
02-Jun-18 20:18 32.569591 -96.840257 292 3608ft 183kts
02-Jun-18 20:19 32.586799 -96.894869 285 2569ft 178kts
02-Jun-18 20:20 32.598810 -96.948909 286 2470ft 162kts
02-Jun-18 20:21 32.607164 -97.001410 273 2159ft 161kts
02-Jun-18 20:22 32.610248 -97.048264 288 1653ft 115kts
02-Jun-18 20:23 32.619222 -97.090579 286 1873ft 138kts
02-Jun-18 20:24 32.634470 -97.133910 293 1837ft 144kts
02-Jun-18 20:25 32.651296 -97.177239 298 1819ft 146kts
02-Jun-18 20:26 32.669941 -97.220587 290 1665ft 149kts
02-Jun-18 20:27 32.689023 -97.275046 292 1717ft 227kts
02-Jun-18 20:28 32.717480 -97.345935 276 1899ft 255kts
02-Jun-18 20:29 32.720191 -97.415256 273 1755ft 203kts
02-Jun-18 20:30 32.749965 -97.442056 3 1032ft 114kts
02-Jun-18 20:31 32.765839 -97.441578 358 654ft 0kts
02-Jun-18 20:32 32.765839 -97.441578 358 654ft 0kts

Navigation Log

Ident Type
Flight plan parsing failed, navigation log unavailable